METAR Data
IDs: Format: Raw Decoded Include TAF

Data at: 0214 UTC 24 Sep 2018

K20V 240148Z AUTO 26003KT 10SM CLR 18/M01 A3011 RMK AO2
K20V 240130Z AUTO 00000KT 10SM SCT110 18/M01 A3010 RMK AO2
K20V 240112Z AUTO 26008KT 10SM BKN110 20/M01 A3010 RMK AO2
K20V 240048Z AUTO 23006KT 10SM SCT110 20/M02 A3010 RMK AO2
K20V 240030Z AUTO 22008G15KT 10SM SCT110 21/M01 A3010 RMK AO2
K20V 240012Z AUTO 24010G15KT 10SM SCT110 23/M01 A3010 RMK AO2
K20V 232348Z AUTO 26012KT 10SM CLR 21/M01 A3010 RMK AO2
K20V 232330Z AUTO 23012G19KT 10SM SCT120 23/M02 A3010 RMK AO2
K20V 232312Z AUTO 25013G19KT 10SM SCT120 23/M02 A3010 RMK AO2
K20V 232248Z AUTO 24012G18KT 10SM BKN120 23/M02 A3011 RMK AO2
K20V 232230Z AUTO 25016G20KT 10SM BKN120 25/M02 A3011 RMK AO2
K20V 232212Z AUTO 26017G21KT 10SM SCT120 23/M02 A3011 RMK AO2
K20V 232148Z AUTO 24014G17KT 10SM BKN120 23/M02 A3012 RMK AO2
K20V 232130Z AUTO 24015G21KT 10SM BKN110 26/M01 A3012 RMK AO2
K20V 232112Z AUTO 24010G21KT 10SM BKN120 24/M01 A3013 RMK AO2
K20V 232051Z AUTO 26014G23KT 10SM BKN120 26/M01 A3014 RMK AO2
K20V 232028Z AUTO 24014G20KT 10SM SCT120 24/M02 A3014 RMK AO2
K20V 232011Z AUTO 24018G27KT 10SM SCT110 24/M02 A3016 RMK AO2
K20V 231953Z AUTO 24016G26KT 10SM SCT110 24/M02 A3017 RMK AO2
K20V 231930Z AUTO 26022G30KT 10SM BKN100 24/M01 A3018 RMK AO2
K20V 231912Z AUTO 24019G27KT 10SM BKN100 24/M01 A3019 RMK AO2
K20V 231853Z AUTO 25017G25KT 10SM BKN100 23/M01 A3020 RMK AO2
K20V 231829Z AUTO 23012G20KT 10SM SCT100 23/M01 A3021 RMK AO2
K20V 231811Z AUTO 20009KT 10SM CLR 21/M01 A3022 RMK AO2
K20V 231753Z AUTO 16003KT 10SM CLR 20/M02 A3024 RMK AO2
K20V 231730Z AUTO 15004KT 10SM CLR 17/M03 A3025 RMK AO2
K20V 231712Z AUTO 00000KT 10SM CLR 15/M03 A3027 RMK AO2
K20V 231648Z AUTO 00000KT 10SM SCT110 13/M03 A3029 RMK AO2
K20V 231630Z AUTO 00000KT 10SM SCT110 12/M05 A3030 RMK AO2
K20V 231612Z AUTO 00000KT 10SM SCT110 10/M05 A3031 RMK AO2
K20V 231548Z AUTO 00000KT 10SM SCT110 09/M05 A3031 RMK AO2
K20V 231530Z AUTO 00000KT 10SM BKN110 06/M06 A3032 RMK AO2
K20V 231512Z AUTO 15003KT 10SM BKN110 07/M05 A3032 RMK AO2
K20V 231448Z AUTO 00000KT 10SM SCT110 04/M07 A3032 RMK AO2
K20V 231430Z AUTO 00000KT 10SM BKN110 03/M05 A3032 RMK AO2
K20V 231412Z AUTO 00000KT 10SM SCT110 02/M06 A3032 RMK AO2
K20V 231348Z AUTO 00000KT 10SM BKN110 01/M07 A3032 RMK AO2
K20V 231330Z AUTO 00000KT 10SM BKN110 00/M07 A3032 RMK AO2
K20V 231312Z AUTO 00000KT 10SM BKN110 M01/M07 A3031 RMK AO2
K20V 231248Z AUTO 00000KT 10SM CLR M01/M06 A3031 RMK AO2
K20V 231230Z AUTO 00000KT 10SM CLR M01/M07 A3031 RMK AO2
K20V 231212Z AUTO 00000KT 10SM CLR M01/M08 A3031 RMK AO2
K20V 231148Z AUTO 13003KT 10SM CLR M01/M07 A3031 RMK AO2
K20V 231130Z AUTO 00000KT 10SM CLR M01/M07 A3031 RMK AO2
K20V 231112Z AUTO 00000KT 10SM CLR 00/M08 A3030 RMK AO2
K20V 231048Z AUTO 00000KT 10SM CLR 01/M07 A3031 RMK AO2
K20V 231030Z AUTO 00000KT 10SM CLR 01/M07 A3030 RMK AO2
K20V 231012Z AUTO 00000KT 10SM CLR 00/M10 A3030 RMK AO2
K20V 230948Z AUTO 00000KT 10SM CLR 01/M06 A3030 RMK AO2
K20V 230930Z AUTO 00000KT 10SM CLR 01/M06 A3029 RMK AO2
K20V 230912Z AUTO 00000KT 10SM CLR 01/M07 A3029 RMK AO2
K20V 230848Z AUTO 00000KT 10SM CLR 01/M07 A3029 RMK AO2
K20V 230830Z AUTO 00000KT 10SM CLR 02/M05 A3029 RMK AO2
K20V 230812Z AUTO 00000KT 10SM CLR 02/M06 A3029 RMK AO2
K20V 230748Z AUTO 00000KT 10SM CLR 02/M05 A3029 RMK AO2
K20V 230730Z AUTO 00000KT 10SM CLR 03/M08 A3029 RMK AO2
K20V 230712Z AUTO 00000KT 10SM CLR 03/M07 A3029 RMK AO2
K20V 230653Z AUTO 00000KT 10SM CLR 05/M07 A3029 RMK AO2
K20V 230630Z AUTO 00000KT 10SM CLR 05/M07 A3029 RMK AO2
K20V 230612Z AUTO 00000KT 10SM CLR 05/M08 A3029 RMK AO2
K20V 230548Z AUTO 12005KT 10SM CLR 06/M08 A3029 RMK AO2
K20V 230530Z AUTO 09004KT 10SM CLR 07/M07 A3029 RMK AO2
K20V 230512Z AUTO 10005KT 10SM CLR 09/M07 A3029 RMK AO2
K20V 230448Z AUTO 10007KT 10SM CLR 09/M07 A3028 RMK AO2
K20V 230430Z AUTO 00000KT 10SM CLR 09/M08 A3028 RMK AO2
K20V 230412Z AUTO 09006KT 10SM CLR 10/M08 A3028 RMK AO2
K20V 230352Z AUTO 09007KT 10SM CLR 11/M08 A3027 RMK AO2
K20V 230328Z AUTO 11009KT 10SM CLR 10/M08 A3027 RMK AO2
K20V 230311Z AUTO 11006KT 10SM CLR 12/M08 A3027 RMK AO2
K20V 230253Z AUTO 00000KT 10SM CLR 12/M08 A3026 RMK AO2
K20V 230229Z AUTO 00000KT 10SM CLR 13/M10 A3025 RMK AO2
K20V 230212Z AUTO 06004KT 10SM CLR 14/M10 A3025 RMK AO2
K20V 230148Z AUTO 36004KT 10SM CLR 16/M10 A3024 RMK AO2
K20V 230130Z AUTO 32003KT 10SM CLR 17/M08 A3024 RMK AO2
K20V 230112Z AUTO 00000KT 10SM CLR 17/M08 A3024 RMK AO2
K20V 230048Z AUTO 25006KT 10SM CLR 20/M06 A3024 RMK AO2
K20V 230030Z AUTO 25008G14KT 10SM CLR 21/M07 A3024 RMK AO2
K20V 230012Z AUTO 25010KT 10SM CLR 23/M07 A3024 RMK AO2
K20V 222348Z AUTO 24011G16KT 10SM CLR 23/M08 A3024 RMK AO2
K20V 222330Z AUTO 24009KT 10SM CLR 24/M07 A3024 RMK AO2
K20V 222312Z AUTO 26012KT 10SM CLR 24/M07 A3024 RMK AO2
K20V 222248Z AUTO 25010G16KT 10SM CLR 24/M07 A3024 RMK AO2
K20V 222230Z AUTO 25016G20KT 10SM CLR 25/M05 A3024 RMK AO2
K20V 222212Z AUTO 25011G17KT 10SM CLR 25/M06 A3024 RMK AO2
K20V 222148Z AUTO 22010G19KT 10SM CLR 26/M06 A3025 RMK AO2
K20V 222130Z AUTO 21006G20KT 174V234 10SM CLR 25/M06 A3025 RMK AO2
K20V 222112Z AUTO 23015G20KT 10SM CLR 25/M06 A3026 RMK AO2
K20V 222048Z AUTO 21005G16KT 10SM CLR 25/M06 A3027 RMK AO2
K20V 222030Z AUTO 25009G19KT 224V284 10SM CLR 24/M06 A3028 RMK AO2
K20V 222012Z AUTO 20009G18KT 194V254 10SM CLR 24/M06 A3029 RMK AO2
K20V 221948Z AUTO 28013G20KT 10SM CLR 24/M06 A3030 RMK AO2
K20V 221930Z AUTO 24012G19KT 10SM CLR 25/M06 A3031 RMK AO2
K20V 221912Z AUTO 27006G18KT 10SM CLR 23/M06 A3032 RMK AO2
K20V 221848Z AUTO 17003KT 10SM CLR 23/M04 A3034 RMK AO2
K20V 221830Z AUTO 14004KT 10SM CLR 21/M05 A3035 RMK AO2
K20V 221812Z AUTO 12004KT 10SM CLR 20/M05 A3037 RMK AO2
K20V 221748Z AUTO 00000KT 10SM CLR 16/M05 A3039 RMK AO2
K20V 221730Z AUTO 00000KT 10SM CLR 15/M05 A3040 RMK AO2
K20V 221712Z AUTO 00000KT 10SM CLR 14/M05 A3041 RMK AO2
K20V 221648Z AUTO 00000KT 10SM CLR 12/M05 A3043 RMK AO2
K20V 221630Z AUTO 00000KT 10SM CLR 10/M05 A3043 RMK AO2
K20V 221612Z AUTO 00000KT 10SM CLR 09/M06 A3044 RMK AO2
K20V 221548Z AUTO 00000KT 10SM CLR 07/M06 A3045 RMK AO2
K20V 221530Z AUTO 00000KT 10SM CLR 05/M06 A3045 RMK AO2
K20V 221512Z AUTO 00000KT 10SM CLR 03/M06 A3046 RMK AO2
K20V 221448Z AUTO 00000KT 10SM CLR 03/M07 A3046 RMK AO2
K20V 221430Z AUTO 00000KT 10SM CLR 01/M07 A3046 RMK AO2